sensor_id;sensor_type;location;lat;lon;timestamp;pressure;altitude;pressure_sealevel;temperature;humidity
14790;BME280;7486;51.010;10.366;2023-03-03T00:01:36;98818.00;;;-2.75;91.93
14790;BME280;7486;51.010;10.366;2023-03-03T00:04:21;98822.44;;;-2.65;92.01
14790;BME280;7486;51.010;10.366;2023-03-03T00:07:06;98803.66;;;-2.68;91.78
14790;BME280;7486;51.010;10.366;2023-03-03T00:09:52;98762.72;;;-2.76;91.24
14790;BME280;7486;51.010;10.366;2023-03-03T00:12:47;98827.63;;;-2.77;92.22
14790;BME280;7486;51.010;10.366;2023-03-03T00:15:34;98820.63;;;-2.88;93.46
14790;BME280;7486;51.010;10.366;2023-03-03T00:18:30;98824.09;;;-2.76;93.07
14790;BME280;7486;51.010;10.366;2023-03-03T00:21:26;98822.34;;;-2.76;93.67
14790;BME280;7486;51.010;10.366;2023-03-03T00:27:01;98812.44;;;-2.58;92.94
14790;BME280;7486;51.010;10.366;2023-03-03T00:29:55;98810.53;;;-2.80;93.49
14790;BME280;7486;51.010;10.366;2023-03-03T00:32:45;98815.56;;;-3.02;95.25
14790;BME280;7486;51.010;10.366;2023-03-03T00:35:31;98809.38;;;-2.76;95.02
14790;BME280;7486;51.010;10.366;2023-03-03T00:38:17;98794.97;;;-2.67;93.65
14790;BME280;7486;51.010;10.366;2023-03-03T00:41:14;98818.47;;;-2.58;92.76
14790;BME280;7486;51.010;10.366;2023-03-03T00:44:53;98796.09;;;-2.71;92.41
14790;BME280;7486;51.010;10.366;2023-03-03T00:50:28;98825.28;;;-2.44;91.66
14790;BME280;7486;51.010;10.366;2023-03-03T00:53:15;98820.44;;;-2.61;92.14
14790;BME280;7486;51.010;10.366;2023-03-03T00:56:01;98832.59;;;-2.62;92.79
14790;BME280;7486;51.010;10.366;2023-03-03T00:58:47;98837.34;;;-2.56;92.80
14790;BME280;7486;51.010;10.366;2023-03-03T01:01:35;98833.84;;;-2.67;93.15
14790;BME280;7486;51.010;10.366;2023-03-03T01:04:20;98838.31;;;-2.69;92.78
14790;BME280;7486;51.010;10.366;2023-03-03T01:07:05;98836.28;;;-2.89;93.95
14790;BME280;7486;51.010;10.366;2023-03-03T01:09:51;98803.75;;;-3.06;93.98
14790;BME280;7486;51.010;10.366;2023-03-03T01:12:38;98800.13;;;-3.16;95.00
14790;BME280;7486;51.010;10.366;2023-03-03T01:15:24;98744.41;;;-3.34;94.61
14790;BME280;7486;51.010;10.366;2023-03-03T01:18:10;98796.06;;;-2.95;94.21
14790;BME280;7486;51.010;10.366;2023-03-03T01:20:56;98770.38;;;-2.98;93.92
14790;BME280;7486;51.010;10.366;2023-03-03T01:23:41;98791.94;;;-2.61;93.26
14790;BME280;7486;51.010;10.366;2023-03-03T01:26:27;98773.94;;;-2.75;92.08
14790;BME280;7486;51.010;10.366;2023-03-03T01:29:12;98818.59;;;-2.35;92.81
14790;BME280;7486;51.010;10.366;2023-03-03T01:31:58;98820.31;;;-2.23;92.23
14790;BME280;7486;51.010;10.366;2023-03-03T01:34:43;98786.75;;;-2.74;92.21
14790;BME280;7486;51.010;10.366;2023-03-03T01:37:29;98825.84;;;-2.64;92.39
14790;BME280;7486;51.010;10.366;2023-03-03T01:40:23;98819.06;;;-2.78;92.81
14790;BME280;7486;51.010;10.366;2023-03-03T01:43:13;98822.19;;;-2.98;94.15
14790;BME280;7486;51.010;10.366;2023-03-03T01:48:45;98816.41;;;-3.27;95.66
14790;BME280;7486;51.010;10.366;2023-03-03T01:52:00;98827.50;;;-3.25;96.39
14790;BME280;7486;51.010;10.366;2023-03-03T01:54:50;98833.63;;;-3.13;95.34
14790;BME280;7486;51.010;10.366;2023-03-03T01:57:41;98838.09;;;-3.15;96.21
14790;BME280;7486;51.010;10.366;2023-03-03T02:00:29;98829.06;;;-3.22;96.09
14790;BME280;7486;51.010;10.366;2023-03-03T02:03:17;98816.81;;;-3.20;95.50
14790;BME280;7486;51.010;10.366;2023-03-03T02:06:07;98840.03;;;-3.06;95.10
14790;BME280;7486;51.010;10.366;2023-03-03T02:08:59;98842.75;;;-3.33;95.88
14790;BME280;7486;51.010;10.366;2023-03-03T02:11:48;98834.97;;;-3.33;96.13
14790;BME280;7486;51.010;10.366;2023-03-03T02:14:35;98831.00;;;-3.38;96.50
14790;BME280;7486;51.010;10.366;2023-03-03T02:17:21;98823.88;;;-3.22;96.21
14790;BME280;7486;51.010;10.366;2023-03-03T02:26:31;98839.09;;;-3.05;94.70
14790;BME280;7486;51.010;10.366;2023-03-03T02:29:22;98825.50;;;-2.96;94.79
14790;BME280;7486;51.010;10.366;2023-03-03T02:32:07;98820.00;;;-3.04;95.05
14790;BME280;7486;51.010;10.366;2023-03-03T02:34:53;98821.47;;;-3.00;94.06
14790;BME280;7486;51.010;10.366;2023-03-03T02:37:38;98797.03;;;-3.34;95.01
14790;BME280;7486;51.010;10.366;2023-03-03T02:40:25;98826.88;;;-3.16;94.48
14790;BME280;7486;51.010;10.366;2023-03-03T02:43:15;98748.47;;;-3.43;94.21
14790;BME280;7486;51.010;10.366;2023-03-03T02:46:02;98816.94;;;-3.09;93.89
14790;BME280;7486;51.010;10.366;2023-03-03T02:48:48;98759.84;;;-3.46;94.03
14790;BME280;7486;51.010;10.366;2023-03-03T02:51:33;98800.56;;;-3.22;93.88
14790;BME280;7486;51.010;10.366;2023-03-03T02:54:21;98816.09;;;-3.10;93.93
14790;BME280;7486;51.010;10.366;2023-03-03T02:57:07;98817.97;;;-3.37;94.62
14790;BME280;7486;51.010;10.366;2023-03-03T02:59:52;98812.19;;;-3.40;94.69
14790;BME280;7486;51.010;10.366;2023-03-03T03:02:37;98806.06;;;-3.39;94.90
14790;BME280;7486;51.010;10.366;2023-03-03T03:05:23;98780.13;;;-3.90;97.11
14790;BME280;7486;51.010;10.366;2023-03-03T03:08:09;98823.88;;;-3.60;97.29
14790;BME280;7486;51.010;10.366;2023-03-03T03:10:55;98826.97;;;-3.42;96.05
14790;BME280;7486;51.010;10.366;2023-03-03T03:13:42;98808.22;;;-3.59;95.81
14790;BME280;7486;51.010;10.366;2023-03-03T03:16:28;98818.38;;;-3.56;96.39
14790;BME280;7486;51.010;10.366;2023-03-03T03:19:13;98826.34;;;-3.59;96.67
14790;BME280;7486;51.010;10.366;2023-03-03T03:22:00;98823.00;;;-3.73;97.47
14790;BME280;7486;51.010;10.366;2023-03-03T03:24:47;98809.88;;;-3.70;97.24
14790;BME280;7486;51.010;10.366;2023-03-03T03:27:33;98759.50;;;-4.04;97.58
14790;BME280;7486;51.010;10.366;2023-03-03T03:30:18;98792.28;;;-3.90;97.50
14790;BME280;7486;51.010;10.366;2023-03-03T03:33:05;98827.31;;;-3.60;97.31
14790;BME280;7486;51.010;10.366;2023-03-03T03:35:51;98784.38;;;-3.89;96.43
14790;BME280;7486;51.010;10.366;2023-03-03T03:38:37;98839.22;;;-3.57;96.54
14790;BME280;7486;51.010;10.366;2023-03-03T03:41:24;98834.94;;;-3.46;96.34
14790;BME280;7486;51.010;10.366;2023-03-03T03:44:10;98837.44;;;-3.57;96.52
14790;BME280;7486;51.010;10.366;2023-03-03T03:46:55;98810.41;;;-3.53;95.92
14790;BME280;7486;51.010;10.366;2023-03-03T03:49:42;98843.16;;;-3.26;94.60
14790;BME280;7486;51.010;10.366;2023-03-03T03:52:27;98838.78;;;-3.13;94.26
14790;BME280;7486;51.010;10.366;2023-03-03T03:55:12;98822.13;;;-3.34;94.00
14790;BME280;7486;51.010;10.366;2023-03-03T03:57:59;98837.56;;;-3.20;94.41
14790;BME280;7486;51.010;10.366;2023-03-03T04:00:45;98833.22;;;-3.32;93.55
14790;BME280;7486;51.010;10.366;2023-03-03T04:03:31;98785.75;;;-3.58;93.78
14790;BME280;7486;51.010;10.366;2023-03-03T04:06:17;98828.53;;;-3.27;93.77
14790;BME280;7486;51.010;10.366;2023-03-03T04:09:02;98828.97;;;-3.33;93.33
14790;BME280;7486;51.010;10.366;2023-03-03T04:11:48;98828.31;;;-3.24;92.91
14790;BME280;7486;51.010;10.366;2023-03-03T04:14:34;98836.22;;;-3.26;93.33
14790;BME280;7486;51.010;10.366;2023-03-03T04:17:21;98833.22;;;-3.32;94.14
14790;BME280;7486;51.010;10.366;2023-03-03T04:20:10;98827.09;;;-3.19;93.98
14790;BME280;7486;51.010;10.366;2023-03-03T04:22:56;98838.50;;;-3.09;92.38
14790;BME280;7486;51.010;10.366;2023-03-03T04:25:45;98845.09;;;-2.92;92.00
14790;BME280;7486;51.010;10.366;2023-03-03T04:28:32;98847.50;;;-3.14;92.40
14790;BME280;7486;51.010;10.366;2023-03-03T04:31:18;98850.72;;;-3.23;92.80
14790;BME280;7486;51.010;10.366;2023-03-03T04:34:04;98831.00;;;-3.38;93.23
14790;BME280;7486;51.010;10.366;2023-03-03T04:36:50;98847.41;;;-3.13;92.87
14790;BME280;7486;51.010;10.366;2023-03-03T04:39:35;98815.78;;;-3.30;93.20
14790;BME280;7486;51.010;10.366;2023-03-03T04:42:21;98848.00;;;-3.22;92.94
14790;BME280;7486;51.010;10.366;2023-03-03T04:45:07;98847.19;;;-3.22;92.41
14790;BME280;7486;51.010;10.366;2023-03-03T04:47:53;98852.56;;;-3.25;92.04
14790;BME280;7486;51.010;10.366;2023-03-03T04:50:41;98862.00;;;-3.37;92.64
14790;BME280;7486;51.010;10.366;2023-03-03T04:53:26;98862.94;;;-3.38;92.59
14790;BME280;7486;51.010;10.366;2023-03-03T04:56:12;98858.50;;;-3.23;92.41
14790;BME280;7486;51.010;10.366;2023-03-03T04:58:57;98857.56;;;-3.22;91.96
14790;BME280;7486;51.010;10.366;2023-03-03T05:01:43;98858.81;;;-3.15;92.24
14790;BME280;7486;51.010;10.366;2023-03-03T05:04:28;98833.72;;;-3.27;91.04
14790;BME280;7486;51.010;10.366;2023-03-03T05:07:13;98862.00;;;-3.24;91.63
14790;BME280;7486;51.010;10.366;2023-03-03T05:09:58;98855.91;;;-3.23;92.03
14790;BME280;7486;51.010;10.366;2023-03-03T05:12:43;98828.00;;;-3.45;91.69
14790;BME280;7486;51.010;10.366;2023-03-03T05:15:32;98865.97;;;-3.19;91.72
14790;BME280;7486;51.010;10.366;2023-03-03T05:18:18;98869.75;;;-3.12;90.74
14790;BME280;7486;51.010;10.366;2023-03-03T05:21:04;98869.25;;;-3.04;90.80
14790;BME280;7486;51.010;10.366;2023-03-03T05:23:50;98866.88;;;-3.07;90.92
14790;BME280;7486;51.010;10.366;2023-03-03T05:26:36;98874.66;;;-3.07;90.08
14790;BME280;7486;51.010;10.366;2023-03-03T05:29:21;98874.75;;;-2.96;90.71
14790;BME280;7486;51.010;10.366;2023-03-03T05:32:07;98866.25;;;-3.23;90.25
14790;BME280;7486;51.010;10.366;2023-03-03T05:34:52;98875.97;;;-3.52;92.46
14790;BME280;7486;51.010;10.366;2023-03-03T05:37:37;98867.59;;;-3.30;91.94
14790;BME280;7486;51.010;10.366;2023-03-03T05:40:26;98859.22;;;-3.34;91.48
14790;BME280;7486;51.010;10.366;2023-03-03T05:43:12;98866.06;;;-3.33;90.91
14790;BME280;7486;51.010;10.366;2023-03-03T05:45:57;98861.38;;;-3.53;91.17
14790;BME280;7486;51.010;10.366;2023-03-03T05:48:43;98825.44;;;-3.97;92.12
14790;BME280;7486;51.010;10.366;2023-03-03T05:51:29;98892.97;;;-3.48;92.32
14790;BME280;7486;51.010;10.366;2023-03-03T05:54:14;98888.28;;;-3.56;92.00
14790;BME280;7486;51.010;10.366;2023-03-03T05:56:59;98892.75;;;-3.58;92.32
14790;BME280;7486;51.010;10.366;2023-03-03T05:59:45;98898.97;;;-3.48;92.29
14790;BME280;7486;51.010;10.366;2023-03-03T06:02:30;98900.03;;;-3.50;92.50
14790;BME280;7486;51.010;10.366;2023-03-03T06:05:16;98915.63;;;-3.52;91.96
14790;BME280;7486;51.010;10.366;2023-03-03T06:08:02;98903.72;;;-3.67;92.01
14790;BME280;7486;51.010;10.366;2023-03-03T06:10:48;98842.34;;;-3.91;92.43
14790;BME280;7486;51.010;10.366;2023-03-03T06:13:33;98910.06;;;-3.46;91.84
14790;BME280;7486;51.010;10.366;2023-03-03T06:16:19;98915.47;;;-3.36;91.77
14790;BME280;7486;51.010;10.366;2023-03-03T06:19:05;98923.53;;;-3.40;91.11
14790;BME280;7486;51.010;10.366;2023-03-03T06:21:50;98912.41;;;-3.55;92.02
14790;BME280;7486;51.010;10.366;2023-03-03T06:24:35;98917.22;;;-3.36;90.88
14790;BME280;7486;51.010;10.366;2023-03-03T06:27:21;98911.84;;;-3.33;90.20
14790;BME280;7486;51.010;10.366;2023-03-03T06:30:07;98922.38;;;-3.49;90.17
14790;BME280;7486;51.010;10.366;2023-03-03T06:32:53;98932.31;;;-3.56;90.70
14790;BME280;7486;51.010;10.366;2023-03-03T06:35:38;98923.94;;;-3.47;90.96
14790;BME280;7486;51.010;10.366;2023-03-03T06:38:25;98881.19;;;-3.79;90.06
14790;BME280;7486;51.010;10.366;2023-03-03T06:41:10;98921.94;;;-3.56;90.90
14790;BME280;7486;51.010;10.366;2023-03-03T06:43:56;98932.00;;;-3.51;90.27
14790;BME280;7486;51.010;10.366;2023-03-03T06:46:41;98931.94;;;-3.50;89.96
14790;BME280;7486;51.010;10.366;2023-03-03T06:49:27;98926.66;;;-3.75;90.95
14790;BME280;7486;51.010;10.366;2023-03-03T06:52:24;98927.72;;;-3.65;91.25
14790;BME280;7486;51.010;10.366;2023-03-03T06:55:12;98938.22;;;-3.54;90.46
14790;BME280;7486;51.010;10.366;2023-03-03T06:57:59;98937.16;;;-3.64;90.43
14790;BME280;7486;51.010;10.366;2023-03-03T07:00:53;98942.66;;;-3.56;91.08
14790;BME280;7486;51.010;10.366;2023-03-03T07:03:39;98946.91;;;-3.55;90.64
14790;BME280;7486;51.010;10.366;2023-03-03T07:06:25;98940.69;;;-3.52;90.98
14790;BME280;7486;51.010;10.366;2023-03-03T07:09:37;98935.38;;;-3.36;90.08
14790;BME280;7486;51.010;10.366;2023-03-03T07:12:24;98852.72;;;-3.79;89.37
14790;BME280;7486;51.010;10.366;2023-03-03T07:15:22;98937.94;;;-3.36;89.34
14790;BME280;7486;51.010;10.366;2023-03-03T07:18:56;98926.88;;;-3.78;90.31
14790;BME280;7486;51.010;10.366;2023-03-03T07:21:43;98926.25;;;-3.69;92.00
14790;BME280;7486;51.010;10.366;2023-03-03T07:24:29;98932.00;;;-3.64;90.39
14790;BME280;7486;51.010;10.366;2023-03-03T07:27:22;98942.00;;;-3.72;90.22
14790;BME280;7486;51.010;10.366;2023-03-03T07:32:57;98907.69;;;-3.88;90.84
14790;BME280;7486;51.010;10.366;2023-03-03T07:35:43;98883.03;;;-4.20;91.59
14790;BME280;7486;51.010;10.366;2023-03-03T07:38:34;98951.63;;;-3.74;91.71
14790;BME280;7486;51.010;10.366;2023-03-03T07:41:21;98958.50;;;-3.87;91.41
14790;BME280;7486;51.010;10.366;2023-03-03T07:44:19;98968.47;;;-3.81;92.46
14790;BME280;7486;51.010;10.366;2023-03-03T07:47:18;98972.00;;;-3.82;92.49
14790;BME280;7486;51.010;10.366;2023-03-03T07:50:22;98978.53;;;-3.76;92.05
14790;BME280;7486;51.010;10.366;2023-03-03T07:53:29;98975.50;;;-3.83;91.52
14790;BME280;7486;51.010;10.366;2023-03-03T07:56:29;98980.22;;;-3.63;91.79
14790;BME280;7486;51.010;10.366;2023-03-03T07:59:24;98988.25;;;-3.80;91.39
14790;BME280;7486;51.010;10.366;2023-03-03T08:08:32;98979.34;;;-4.03;92.08
14790;BME280;7486;51.010;10.366;2023-03-03T08:11:18;98989.50;;;-4.00;92.82
14790;BME280;7486;51.010;10.366;2023-03-03T08:14:09;98989.56;;;-3.87;92.46
14790;BME280;7486;51.010;10.366;2023-03-03T08:16:56;98981.25;;;-3.92;92.00
14790;BME280;7486;51.010;10.366;2023-03-03T08:19:45;98966.97;;;-3.97;92.01
14790;BME280;7486;51.010;10.366;2023-03-03T08:22:32;98987.72;;;-3.85;91.68
14790;BME280;7486;51.010;10.366;2023-03-03T08:25:18;98995.97;;;-3.66;90.94
14790;BME280;7486;51.010;10.366;2023-03-03T08:28:03;98972.44;;;-3.75;90.25
14790;BME280;7486;51.010;10.366;2023-03-03T08:30:49;99011.13;;;-3.60;89.93
14790;BME280;7486;51.010;10.366;2023-03-03T08:33:34;99016.19;;;-3.58;90.15
14790;BME280;7486;51.010;10.366;2023-03-03T08:36:20;99028.53;;;-3.76;90.92
14790;BME280;7486;51.010;10.366;2023-03-03T08:39:06;99028.09;;;-3.82;90.59
14790;BME280;7486;51.010;10.366;2023-03-03T08:41:51;99028.09;;;-3.82;91.25
14790;BME280;7486;51.010;10.366;2023-03-03T08:44:36;99027.91;;;-3.79;90.56
14790;BME280;7486;51.010;10.366;2023-03-03T08:47:22;98970.88;;;-4.19;89.90
14790;BME280;7486;51.010;10.366;2023-03-03T08:50:08;99026.91;;;-3.77;90.48
14790;BME280;7486;51.010;10.366;2023-03-03T08:52:54;99020.28;;;-3.68;90.15
14790;BME280;7486;51.010;10.366;2023-03-03T08:55:40;98960.88;;;-4.11;88.92
14790;BME280;7486;51.010;10.366;2023-03-03T08:58:26;99020.22;;;-3.67;88.51
14790;BME280;7486;51.010;10.366;2023-03-03T09:01:20;99022.06;;;-3.69;87.94
14790;BME280;7486;51.010;10.366;2023-03-03T09:04:05;99028.34;;;-3.73;87.75
14790;BME280;7486;51.010;10.366;2023-03-03T09:06:51;99028.53;;;-3.76;88.78
14790;BME280;7486;51.010;10.366;2023-03-03T09:09:36;99036.53;;;-3.93;88.58
14790;BME280;7486;51.010;10.366;2023-03-03T09:12:43;99030.03;;;-3.72;87.98
14790;BME280;7486;51.010;10.366;2023-03-03T09:15:29;99034.53;;;-3.61;87.23
14790;BME280;7486;51.010;10.366;2023-03-03T09:18:17;99041.25;;;-3.59;86.16
14790;BME280;7486;51.010;10.366;2023-03-03T09:21:36;99037.28;;;-3.91;87.71
14790;BME280;7486;51.010;10.366;2023-03-03T09:24:27;99044.84;;;-3.88;87.30
14790;BME280;7486;51.010;10.366;2023-03-03T09:27:18;99038.25;;;-3.79;87.84
14790;BME280;7486;51.010;10.366;2023-03-03T09:30:35;99040.63;;;-3.62;87.42
14790;BME280;7486;51.010;10.366;2023-03-03T09:39:24;99048.31;;;-3.61;86.71
14790;BME280;7486;51.010;10.366;2023-03-03T09:49:07;99042.47;;;-3.37;87.29
14790;BME280;7486;51.010;10.366;2023-03-03T10:14:36;99043.63;;;-3.02;83.05
14790;BME280;7486;51.010;10.366;2023-03-03T10:20:03;99048.88;;;-3.16;84.26
14790;BME280;7486;51.010;10.366;2023-03-03T10:22:55;99054.63;;;-3.25;85.15
14790;BME280;7486;51.010;10.366;2023-03-03T10:26:04;99055.13;;;-2.93;85.28
14790;BME280;7486;51.010;10.366;2023-03-03T10:29:04;99050.22;;;-2.71;84.45
14790;BME280;7486;51.010;10.366;2023-03-03T10:44:44;99039.22;;;-2.75;83.11
14790;BME280;7486;51.010;10.366;2023-03-03T10:54:56;99054.13;;;-2.03;80.13
14790;BME280;7486;51.010;10.366;2023-03-03T10:57:32;99047.31;;;-2.29;79.90
14790;BME280;7486;51.010;10.366;2023-03-03T11:06:39;99062.03;;;-2.04;79.14
14790;BME280;7486;51.010;10.366;2023-03-03T11:24:54;99045.88;;;-1.84;77.87
14790;BME280;7486;51.010;10.366;2023-03-03T11:34:00;99038.44;;;-2.01;79.00
14790;BME280;7486;51.010;10.366;2023-03-03T11:36:51;99025.16;;;-1.97;79.08
14790;BME280;7486;51.010;10.366;2023-03-03T11:39:41;99036.91;;;-2.04;78.36
14790;BME280;7486;51.010;10.366;2023-03-03T11:42:35;98976.63;;;-2.32;79.04
14790;BME280;7486;51.010;10.366;2023-03-03T11:45:30;98978.50;;;-2.34;79.32
14790;BME280;7486;51.010;10.366;2023-03-03T11:48:25;99038.44;;;-1.88;78.98
14790;BME280;7486;51.010;10.366;2023-03-03T11:51:21;99017.41;;;-2.09;79.12
14790;BME280;7486;51.010;10.366;2023-03-03T11:54:23;99037.41;;;-1.62;78.61
14790;BME280;7486;51.010;10.366;2023-03-03T11:57:25;99034.13;;;-1.40;77.23
14790;BME280;7486;51.010;10.366;2023-03-03T12:03:52;99030.84;;;-1.31;76.52
14790;BME280;7486;51.010;10.366;2023-03-03T12:16:54;99027.31;;;-0.96;75.91
14790;BME280;7486;51.010;10.366;2023-03-03T12:26:19;99021.44;;;-0.86;74.22
14790;BME280;7486;51.010;10.366;2023-03-03T12:32:19;99003.31;;;-0.31;73.22
14790;BME280;7486;51.010;10.366;2023-03-03T12:35:19;99006.13;;;-0.34;73.38
14790;BME280;7486;51.010;10.366;2023-03-03T12:41:26;98996.91;;;-0.49;73.22
14790;BME280;7486;51.010;10.366;2023-03-03T12:44:25;98999.16;;;-0.56;72.83
14790;BME280;7486;51.010;10.366;2023-03-03T12:53:12;98999.09;;;-0.78;74.63
14790;BME280;7486;51.010;10.366;2023-03-03T12:56:07;98991.13;;;-0.42;73.76
14790;BME280;7486;51.010;10.366;2023-03-03T12:59:13;98986.38;;;-0.14;73.79
14790;BME280;7486;51.010;10.366;2023-03-03T13:30:14;98975.25;;;-0.38;69.29
14790;BME280;7486;51.010;10.366;2023-03-03T13:36:12;98981.41;;;-0.40;69.67
14790;BME280;7486;51.010;10.366;2023-03-03T13:39:14;98981.41;;;-0.51;69.92
14790;BME280;7486;51.010;10.366;2023-03-03T13:42:05;98980.06;;;-0.78;70.41
14790;BME280;7486;51.010;10.366;2023-03-03T13:44:55;98930.94;;;-1.16;70.21
14790;BME280;7486;51.010;10.366;2023-03-03T13:48:07;98981.66;;;-1.11;71.59
14790;BME280;7486;51.010;10.366;2023-03-03T13:54:05;98963.84;;;-0.93;73.49
14790;BME280;7486;51.010;10.366;2023-03-03T14:06:25;98966.66;;;-1.07;74.48
14790;BME280;7486;51.010;10.366;2023-03-03T14:15:56;98964.81;;;-0.83;73.82
14790;BME280;7486;51.010;10.366;2023-03-03T14:18:54;98956.41;;;-0.86;71.90
14790;BME280;7486;51.010;10.366;2023-03-03T14:22:11;98956.72;;;-1.02;75.24
14790;BME280;7486;51.010;10.366;2023-03-03T14:25:06;98934.06;;;-0.89;72.47
14790;BME280;7486;51.010;10.366;2023-03-03T14:28:01;98947.44;;;-0.71;72.95
14790;BME280;7486;51.010;10.366;2023-03-03T14:30:52;98945.56;;;-0.69;72.71
14790;BME280;7486;51.010;10.366;2023-03-03T14:33:42;98945.56;;;-0.36;71.17
14790;BME280;7486;51.010;10.366;2023-03-03T14:36:32;98948.28;;;-0.49;71.37
14790;BME280;7486;51.010;10.366;2023-03-03T14:39:37;98942.22;;;-0.27;71.14
14790;BME280;7486;51.010;10.366;2023-03-03T14:42:33;98919.91;;;-0.63;72.38
14790;BME280;7486;51.010;10.366;2023-03-03T14:45:39;98934.19;;;-0.57;72.34
14790;BME280;7486;51.010;10.366;2023-03-03T14:48:26;98930.06;;;-0.93;74.30
14790;BME280;7486;51.010;10.366;2023-03-03T14:51:24;98939.94;;;-1.20;76.70
14790;BME280;7486;51.010;10.366;2023-03-03T14:57:09;98780.22;;;-2.43;78.42
14790;BME280;7486;51.010;10.366;2023-03-03T15:03:02;98918.69;;;-1.49;79.49
14790;BME280;7486;51.010;10.366;2023-03-03T15:05:55;98910.56;;;-1.33;79.43
14790;BME280;7486;51.010;10.366;2023-03-03T15:08:41;98905.88;;;-1.63;78.81
14790;BME280;7486;51.010;10.366;2023-03-03T15:11:32;98888.78;;;-1.55;79.19
14790;BME280;7486;51.010;10.366;2023-03-03T15:14:19;98902.25;;;-1.50;79.33
14790;BME280;7486;51.010;10.366;2023-03-03T15:17:19;98851.38;;;-1.87;78.34
14790;BME280;7486;51.010;10.366;2023-03-03T15:20:31;98901.97;;;-1.34;78.82
14790;BME280;7486;51.010;10.366;2023-03-03T15:23:38;98906.59;;;-1.15;77.97
14790;BME280;7486;51.010;10.366;2023-03-03T15:26:45;98910.19;;;-1.40;77.30
14790;BME280;7486;51.010;10.366;2023-03-03T15:32:34;98891.47;;;-1.21;77.35
14790;BME280;7486;51.010;10.366;2023-03-03T15:35:35;98893.13;;;-1.20;76.83
14790;BME280;7486;51.010;10.366;2023-03-03T15:38:50;98891.81;;;-1.26;78.37
14790;BME280;7486;51.010;10.366;2023-03-03T15:42:03;98875.31;;;-1.60;80.00
14790;BME280;7486;51.010;10.366;2023-03-03T15:54:44;98891.06;;;-1.39;79.31
14790;BME280;7486;51.010;10.366;2023-03-03T15:58:02;98886.00;;;-1.40;78.41
14790;BME280;7486;51.010;10.366;2023-03-03T16:13:22;98891.19;;;-1.75;80.50
14790;BME280;7486;51.010;10.366;2023-03-03T16:16:35;98892.03;;;-1.75;79.86
14790;BME280;7486;51.010;10.366;2023-03-03T16:19:39;98897.41;;;-1.78;79.48
14790;BME280;7486;51.010;10.366;2023-03-03T16:31:21;98905.94;;;-2.23;81.17
14790;BME280;7486;51.010;10.366;2023-03-03T16:34:27;98909.41;;;-2.12;81.59
14790;BME280;7486;51.010;10.366;2023-03-03T16:40:14;98916.16;;;-2.46;82.53
14790;BME280;7486;51.010;10.366;2023-03-03T16:46:34;98915.84;;;-2.41;82.40
14790;BME280;7486;51.010;10.366;2023-03-03T16:49:36;98928.06;;;-2.30;82.08
14790;BME280;7486;51.010;10.366;2023-03-03T16:52:29;98919.31;;;-2.29;82.70
14790;BME280;7486;51.010;10.366;2023-03-03T16:55:19;98911.84;;;-2.21;81.39
14790;BME280;7486;51.010;10.366;2023-03-03T17:04:40;98928.25;;;-2.21;81.52
14790;BME280;7486;51.010;10.366;2023-03-03T17:10:51;98898.69;;;-2.31;81.11
14790;BME280;7486;51.010;10.366;2023-03-03T17:14:02;98915.09;;;-2.30;80.71
14790;BME280;7486;51.010;10.366;2023-03-03T17:32:16;98926.16;;;-1.33;77.39
14790;BME280;7486;51.010;10.366;2023-03-03T17:38:14;98934.88;;;-1.11;76.31
14790;BME280;7486;51.010;10.366;2023-03-03T17:41:27;98924.75;;;-1.26;75.89
14790;BME280;7486;51.010;10.366;2023-03-03T17:47:10;98932.13;;;-1.09;75.86
14790;BME280;7486;51.010;10.366;2023-03-03T18:02:11;98952.50;;;-0.81;73.91
14790;BME280;7486;51.010;10.366;2023-03-03T18:05:25;98960.56;;;-0.73;74.11
14790;BME280;7486;51.010;10.366;2023-03-03T18:11:38;98948.97;;;-0.58;73.18
14790;BME280;7486;51.010;10.366;2023-03-03T18:23:49;98959.75;;;-0.29;71.91
14790;BME280;7486;51.010;10.366;2023-03-03T18:26:39;98960.09;;;-0.22;71.97
14790;BME280;7486;51.010;10.366;2023-03-03T18:29:26;98967.06;;;-0.34;71.06
14790;BME280;7486;51.010;10.366;2023-03-03T18:32:20;98936.22;;;-0.38;71.27
14790;BME280;7486;51.010;10.366;2023-03-03T18:38:27;98959.75;;;-0.29;70.62
14790;BME280;7486;51.010;10.366;2023-03-03T18:41:25;98963.66;;;-0.23;71.02
14790;BME280;7486;51.010;10.366;2023-03-03T18:44:27;98964.56;;;-0.13;70.47
14790;BME280;7486;51.010;10.366;2023-03-03T18:47:13;98961.97;;;-0.13;70.53
14790;BME280;7486;51.010;10.366;2023-03-03T18:50:28;98960.59;;;-0.28;70.49
14790;BME280;7486;51.010;10.366;2023-03-03T18:56:10;98967.22;;;-0.24;70.21
14790;BME280;7486;51.010;10.366;2023-03-03T18:58:55;98965.31;;;-0.22;70.25
14790;BME280;7486;51.010;10.366;2023-03-03T19:01:42;98968.94;;;-0.14;70.43
14790;BME280;7486;51.010;10.366;2023-03-03T19:04:34;98969.44;;;-0.09;70.49
14790;BME280;7486;51.010;10.366;2023-03-03T19:19:19;98937.63;;;-0.79;72.02
14790;BME280;7486;51.010;10.366;2023-03-03T19:22:25;98968.00;;;-0.68;70.91
14790;BME280;7486;51.010;10.366;2023-03-03T19:28:27;98971.88;;;-0.85;72.40
14790;BME280;7486;51.010;10.366;2023-03-03T19:31:28;98972.22;;;-1.01;72.71
14790;BME280;7486;51.010;10.366;2023-03-03T19:37:55;98973.34;;;-1.16;74.15
14790;BME280;7486;51.010;10.366;2023-03-03T19:40:51;98975.09;;;-1.27;74.59
14790;BME280;7486;51.010;10.366;2023-03-03T19:43:51;98978.53;;;-1.74;76.66
14790;BME280;7486;51.010;10.366;2023-03-03T19:46:58;98938.72;;;-1.86;77.31
14790;BME280;7486;51.010;10.366;2023-03-03T19:52:38;98984.47;;;-1.72;77.49
14790;BME280;7486;51.010;10.366;2023-03-03T19:58:55;98984.63;;;-1.86;78.60
14790;BME280;7486;51.010;10.366;2023-03-03T20:07:55;98987.53;;;-1.67;79.30
14790;BME280;7486;51.010;10.366;2023-03-03T20:11:03;98990.59;;;-1.50;78.52
14790;BME280;7486;51.010;10.366;2023-03-03T20:14:01;98979.88;;;-1.10;77.24
14790;BME280;7486;51.010;10.366;2023-03-03T20:16:52;98993.06;;;-1.24;77.17
14790;BME280;7486;51.010;10.366;2023-03-03T20:22:55;98983.22;;;-1.32;77.64
14790;BME280;7486;51.010;10.366;2023-03-03T20:25:54;98939.91;;;-1.55;76.96
14790;BME280;7486;51.010;10.366;2023-03-03T20:40:38;98999.06;;;-1.00;76.53
14790;BME280;7486;51.010;10.366;2023-03-03T20:43:45;98986.78;;;-0.87;74.83
14790;BME280;7486;51.010;10.366;2023-03-03T20:47:12;98984.91;;;-0.74;74.96
14790;BME280;7486;51.010;10.366;2023-03-03T21:05:14;98982.81;;;-0.47;73.10
14790;BME280;7486;51.010;10.366;2023-03-03T21:08:04;98985.66;;;-0.50;72.80
14790;BME280;7486;51.010;10.366;2023-03-03T21:10:55;98983.28;;;-0.53;73.23